sensor_id;sensor_type;location;lat;lon;timestamp;P1;durP1;ratioP1;P2;durP2;ratioP2
64401;SDS011;50724;42.376;23.768;2023-06-14T00:01:13;8.48;;;5.35;;
64401;SDS011;50724;42.376;23.768;2023-06-14T00:04:14;8.63;;;4.43;;
64401;SDS011;50724;42.376;23.768;2023-06-14T00:07:18;8.85;;;4.90;;
64401;SDS011;50724;42.376;23.768;2023-06-14T00:10:23;9.23;;;5.22;;
64401;SDS011;50724;42.376;23.768;2023-06-14T00:13:24;11.05;;;5.07;;
64401;SDS011;50724;42.376;23.768;2023-06-14T00:16:24;8.77;;;5.10;;
64401;SDS011;50724;42.376;23.768;2023-06-14T00:19:25;10.68;;;4.88;;
64401;SDS011;50724;42.376;23.768;2023-06-14T00:22:26;12.75;;;5.03;;
64401;SDS011;50724;42.376;23.768;2023-06-14T00:25:28;10.10;;;4.95;;
64401;SDS011;50724;42.376;23.768;2023-06-14T00:28:29;8.35;;;4.80;;
64401;SDS011;50724;42.376;23.768;2023-06-14T00:31:29;7.72;;;4.72;;
64401;SDS011;50724;42.376;23.768;2023-06-14T00:34:30;10.90;;;5.05;;
64401;SDS011;50724;42.376;23.768;2023-06-14T00:37:30;8.23;;;5.17;;
64401;SDS011;50724;42.376;23.768;2023-06-14T00:40:30;9.33;;;5.00;;
64401;SDS011;50724;42.376;23.768;2023-06-14T00:43:31;10.32;;;5.15;;
64401;SDS011;50724;42.376;23.768;2023-06-14T00:46:31;10.50;;;5.00;;
64401;SDS011;50724;42.376;23.768;2023-06-14T00:49:32;9.15;;;5.10;;
64401;SDS011;50724;42.376;23.768;2023-06-14T00:52:32;8.27;;;5.20;;
64401;SDS011;50724;42.376;23.768;2023-06-14T00:55:32;9.57;;;5.80;;
64401;SDS011;50724;42.376;23.768;2023-06-14T00:58:33;15.82;;;5.95;;
64401;SDS011;50724;42.376;23.768;2023-06-14T01:01:33;13.60;;;6.35;;
64401;SDS011;50724;42.376;23.768;2023-06-14T01:04:34;10.52;;;6.10;;
64401;SDS011;50724;42.376;23.768;2023-06-14T01:11:07;12.15;;;5.93;;
64401;SDS011;50724;42.376;23.768;2023-06-14T01:14:09;11.27;;;6.18;;
64401;SDS011;50724;42.376;23.768;2023-06-14T01:17:13;13.75;;;6.43;;
64401;SDS011;50724;42.376;23.768;2023-06-14T01:20:16;10.65;;;6.35;;
64401;SDS011;50724;42.376;23.768;2023-06-14T01:23:20;10.45;;;6.50;;
64401;SDS011;50724;42.376;23.768;2023-06-14T01:29:23;12.65;;;6.57;;
64401;SDS011;50724;42.376;23.768;2023-06-14T01:32:27;10.75;;;5.50;;
64401;SDS011;50724;42.376;23.768;2023-06-14T01:35:29;13.13;;;7.00;;
64401;SDS011;50724;42.376;23.768;2023-06-14T01:38:30;12.20;;;6.25;;
64401;SDS011;50724;42.376;23.768;2023-06-14T01:41:31;11.35;;;6.63;;
64401;SDS011;50724;42.376;23.768;2023-06-14T01:44:33;11.10;;;6.30;;
64401;SDS011;50724;42.376;23.768;2023-06-14T01:47:34;10.98;;;5.90;;
64401;SDS011;50724;42.376;23.768;2023-06-14T01:50:35;12.18;;;6.50;;
64401;SDS011;50724;42.376;23.768;2023-06-14T01:53:35;13.27;;;6.53;;
64401;SDS011;50724;42.376;23.768;2023-06-14T01:56:45;12.60;;;6.97;;
64401;SDS011;50724;42.376;23.768;2023-06-14T01:59:45;15.65;;;6.75;;
64401;SDS011;50724;42.376;23.768;2023-06-14T02:02:49;13.38;;;6.75;;
64401;SDS011;50724;42.376;23.768;2023-06-14T02:05:50;15.20;;;6.60;;
64401;SDS011;50724;42.376;23.768;2023-06-14T02:08:50;11.13;;;6.15;;
64401;SDS011;50724;42.376;23.768;2023-06-14T02:11:50;12.03;;;7.10;;
64401;SDS011;50724;42.376;23.768;2023-06-14T02:14:51;14.00;;;6.80;;
64401;SDS011;50724;42.376;23.768;2023-06-14T02:17:52;14.02;;;7.38;;
64401;SDS011;50724;42.376;23.768;2023-06-14T02:20:54;13.35;;;7.35;;
64401;SDS011;50724;42.376;23.768;2023-06-14T02:23:54;12.73;;;7.20;;
64401;SDS011;50724;42.376;23.768;2023-06-14T02:26:55;13.70;;;6.50;;
64401;SDS011;50724;42.376;23.768;2023-06-14T02:29:56;11.03;;;6.47;;
64401;SDS011;50724;42.376;23.768;2023-06-14T02:32:56;12.65;;;6.80;;
64401;SDS011;50724;42.376;23.768;2023-06-14T02:35:57;15.40;;;7.38;;
64401;SDS011;50724;42.376;23.768;2023-06-14T02:38:58;15.27;;;7.35;;
64401;SDS011;50724;42.376;23.768;2023-06-14T02:41:58;13.70;;;7.80;;
64401;SDS011;50724;42.376;23.768;2023-06-14T02:44:59;10.88;;;6.65;;
64401;SDS011;50724;42.376;23.768;2023-06-14T02:51:57;10.85;;;6.72;;
64401;SDS011;50724;42.376;23.768;2023-06-14T02:54:57;12.00;;;6.75;;
64401;SDS011;50724;42.376;23.768;2023-06-14T02:57:57;15.23;;;6.73;;
64401;SDS011;50724;42.376;23.768;2023-06-14T03:00:58;11.10;;;6.67;;
64401;SDS011;50724;42.376;23.768;2023-06-14T03:04:08;13.65;;;7.25;;
64401;SDS011;50724;42.376;23.768;2023-06-14T03:07:08;14.05;;;7.35;;
64401;SDS011;50724;42.376;23.768;2023-06-14T03:10:10;12.73;;;7.00;;
64401;SDS011;50724;42.376;23.768;2023-06-14T03:13:13;13.43;;;7.45;;
64401;SDS011;50724;42.376;23.768;2023-06-14T03:16:14;13.02;;;7.28;;
64401;SDS011;50724;42.376;23.768;2023-06-14T03:19:15;14.45;;;7.28;;
64401;SDS011;50724;42.376;23.768;2023-06-14T03:22:15;17.37;;;7.70;;
64401;SDS011;50724;42.376;23.768;2023-06-14T03:25:16;13.82;;;7.50;;
64401;SDS011;50724;42.376;23.768;2023-06-14T03:28:16;20.07;;;8.17;;
64401;SDS011;50724;42.376;23.768;2023-06-14T03:31:17;13.60;;;7.65;;
64401;SDS011;50724;42.376;23.768;2023-06-14T03:34:19;14.77;;;8.50;;
64401;SDS011;50724;42.376;23.768;2023-06-14T03:37:19;12.00;;;7.30;;
64401;SDS011;50724;42.376;23.768;2023-06-14T03:40:20;12.30;;;7.63;;
64401;SDS011;50724;42.376;23.768;2023-06-14T03:43:21;12.18;;;7.47;;
64401;SDS011;50724;42.376;23.768;2023-06-14T03:46:22;12.02;;;7.05;;
64401;SDS011;50724;42.376;23.768;2023-06-14T03:49:22;13.00;;;7.10;;
64401;SDS011;50724;42.376;23.768;2023-06-14T03:52:23;12.25;;;7.20;;
64401;SDS011;50724;42.376;23.768;2023-06-14T03:55:23;12.60;;;6.95;;
64401;SDS011;50724;42.376;23.768;2023-06-14T03:58:25;12.07;;;7.57;;
64401;SDS011;50724;42.376;23.768;2023-06-14T04:01:25;10.77;;;6.63;;
64401;SDS011;50724;42.376;23.768;2023-06-14T04:04:29;11.85;;;6.53;;
64401;SDS011;50724;42.376;23.768;2023-06-14T04:07:29;11.18;;;6.85;;
64401;SDS011;50724;42.376;23.768;2023-06-14T04:10:30;10.90;;;6.60;;
64401;SDS011;50724;42.376;23.768;2023-06-14T04:13:30;11.57;;;6.53;;
64401;SDS011;50724;42.376;23.768;2023-06-14T04:16:31;12.20;;;6.45;;
64401;SDS011;50724;42.376;23.768;2023-06-14T04:19:32;11.95;;;6.95;;
64401;SDS011;50724;42.376;23.768;2023-06-14T04:22:34;13.40;;;6.82;;
64401;SDS011;50724;42.376;23.768;2023-06-14T04:25:36;10.73;;;6.63;;
64401;SDS011;50724;42.376;23.768;2023-06-14T04:28:36;10.35;;;5.85;;
64401;SDS011;50724;42.376;23.768;2023-06-14T04:31:40;11.85;;;6.93;;
64401;SDS011;50724;42.376;23.768;2023-06-14T04:34:42;12.90;;;7.47;;
64401;SDS011;50724;42.376;23.768;2023-06-14T04:37:42;12.13;;;7.20;;
64401;SDS011;50724;42.376;23.768;2023-06-14T04:40:43;13.27;;;7.07;;
64401;SDS011;50724;42.376;23.768;2023-06-14T04:43:44;13.90;;;6.75;;
64401;SDS011;50724;42.376;23.768;2023-06-14T04:46:48;11.88;;;6.88;;
64401;SDS011;50724;42.376;23.768;2023-06-14T04:49:48;11.35;;;6.80;;
64401;SDS011;50724;42.376;23.768;2023-06-14T04:52:50;11.25;;;7.10;;
64401;SDS011;50724;42.376;23.768;2023-06-14T04:55:51;10.57;;;6.85;;
64401;SDS011;50724;42.376;23.768;2023-06-14T04:58:52;9.75;;;6.05;;
64401;SDS011;50724;42.376;23.768;2023-06-14T05:01:53;11.00;;;6.40;;
64401;SDS011;50724;42.376;23.768;2023-06-14T05:04:56;11.88;;;6.93;;
64401;SDS011;50724;42.376;23.768;2023-06-14T05:07:57;11.48;;;6.50;;
64401;SDS011;50724;42.376;23.768;2023-06-14T05:10:58;11.27;;;6.75;;
64401;SDS011;50724;42.376;23.768;2023-06-14T05:13:58;14.30;;;7.63;;
64401;SDS011;50724;42.376;23.768;2023-06-14T05:16:58;11.53;;;7.00;;
64401;SDS011;50724;42.376;23.768;2023-06-14T05:19:59;12.52;;;6.93;;
64401;SDS011;50724;42.376;23.768;2023-06-14T05:23:00;10.65;;;6.97;;
64401;SDS011;50724;42.376;23.768;2023-06-14T05:26:01;12.23;;;7.40;;
64401;SDS011;50724;42.376;23.768;2023-06-14T05:32:03;12.38;;;7.22;;
64401;SDS011;50724;42.376;23.768;2023-06-14T05:35:04;12.25;;;8.18;;
64401;SDS011;50724;42.376;23.768;2023-06-14T05:38:05;14.88;;;8.50;;
64401;SDS011;50724;42.376;23.768;2023-06-14T05:44:45;12.43;;;7.35;;
64401;SDS011;50724;42.376;23.768;2023-06-14T05:47:45;12.65;;;7.22;;
64401;SDS011;50724;42.376;23.768;2023-06-14T05:50:46;10.97;;;6.67;;
64401;SDS011;50724;42.376;23.768;2023-06-14T05:53:47;12.82;;;7.45;;
64401;SDS011;50724;42.376;23.768;2023-06-14T05:59:49;12.93;;;7.47;;
64401;SDS011;50724;42.376;23.768;2023-06-14T06:02:50;10.82;;;6.30;;
64401;SDS011;50724;42.376;23.768;2023-06-14T06:05:50;10.47;;;6.13;;
64401;SDS011;50724;42.376;23.768;2023-06-14T06:08:51;9.65;;;6.45;;
64401;SDS011;50724;42.376;23.768;2023-06-14T06:11:51;9.52;;;5.53;;
64401;SDS011;50724;42.376;23.768;2023-06-14T06:14:52;9.40;;;5.32;;
64401;SDS011;50724;42.376;23.768;2023-06-14T06:17:52;10.23;;;5.63;;
64401;SDS011;50724;42.376;23.768;2023-06-14T06:20:53;12.07;;;6.73;;
64401;SDS011;50724;42.376;23.768;2023-06-14T06:23:53;9.50;;;5.65;;
64401;SDS011;50724;42.376;23.768;2023-06-14T06:26:55;9.25;;;5.57;;
64401;SDS011;50724;42.376;23.768;2023-06-14T06:29:55;8.45;;;5.40;;
64401;SDS011;50724;42.376;23.768;2023-06-14T06:32:56;7.70;;;5.28;;
64401;SDS011;50724;42.376;23.768;2023-06-14T06:35:56;8.57;;;5.50;;
64401;SDS011;50724;42.376;23.768;2023-06-14T06:38:56;7.18;;;4.70;;
64401;SDS011;50724;42.376;23.768;2023-06-14T06:41:57;8.48;;;5.13;;
64401;SDS011;50724;42.376;23.768;2023-06-14T06:44:57;8.05;;;4.32;;
64401;SDS011;50724;42.376;23.768;2023-06-14T06:47:58;7.97;;;4.40;;
64401;SDS011;50724;42.376;23.768;2023-06-14T06:50:58;7.82;;;4.70;;
64401;SDS011;50724;42.376;23.768;2023-06-14T06:53:59;7.75;;;4.47;;
64401;SDS011;50724;42.376;23.768;2023-06-14T06:57:00;8.00;;;4.88;;
64401;SDS011;50724;42.376;23.768;2023-06-14T07:00:01;7.38;;;5.40;;
64401;SDS011;50724;42.376;23.768;2023-06-14T07:03:02;8.27;;;5.55;;
64401;SDS011;50724;42.376;23.768;2023-06-14T07:06:04;10.10;;;5.65;;
64401;SDS011;50724;42.376;23.768;2023-06-14T07:09:04;7.03;;;5.20;;
64401;SDS011;50724;42.376;23.768;2023-06-14T07:12:08;8.32;;;5.22;;
64401;SDS011;50724;42.376;23.768;2023-06-14T07:15:08;9.98;;;5.28;;
64401;SDS011;50724;42.376;23.768;2023-06-14T07:18:09;8.40;;;5.10;;
64401;SDS011;50724;42.376;23.768;2023-06-14T07:21:10;9.30;;;4.97;;
64401;SDS011;50724;42.376;23.768;2023-06-14T07:24:11;8.73;;;5.03;;
64401;SDS011;50724;42.376;23.768;2023-06-14T07:27:11;6.75;;;4.68;;
64401;SDS011;50724;42.376;23.768;2023-06-14T07:30:13;7.85;;;5.20;;
64401;SDS011;50724;42.376;23.768;2023-06-14T07:33:14;12.30;;;7.07;;
64401;SDS011;50724;42.376;23.768;2023-06-14T07:36:14;8.15;;;5.05;;
64401;SDS011;50724;42.376;23.768;2023-06-14T07:39:15;9.02;;;6.05;;
64401;SDS011;50724;42.376;23.768;2023-06-14T07:42:15;8.38;;;5.15;;
64401;SDS011;50724;42.376;23.768;2023-06-14T07:45:16;9.50;;;5.93;;
64401;SDS011;50724;42.376;23.768;2023-06-14T07:48:17;11.13;;;5.57;;
64401;SDS011;50724;42.376;23.768;2023-06-14T07:51:27;8.70;;;5.45;;
64401;SDS011;50724;42.376;23.768;2023-06-14T07:54:27;8.55;;;5.53;;
64401;SDS011;50724;42.376;23.768;2023-06-14T07:57:28;10.00;;;6.00;;
64401;SDS011;50724;42.376;23.768;2023-06-14T08:00:29;11.57;;;6.57;;
64401;SDS011;50724;42.376;23.768;2023-06-14T08:03:29;9.25;;;6.28;;
64401;SDS011;50724;42.376;23.768;2023-06-14T08:06:30;9.32;;;5.75;;
64401;SDS011;50724;42.376;23.768;2023-06-14T08:09:31;11.05;;;6.97;;
64401;SDS011;50724;42.376;23.768;2023-06-14T08:12:31;9.83;;;6.30;;
64401;SDS011;50724;42.376;23.768;2023-06-14T08:15:32;10.57;;;6.47;;
64401;SDS011;50724;42.376;23.768;2023-06-14T08:18:33;9.98;;;5.95;;
64401;SDS011;50724;42.376;23.768;2023-06-14T08:21:34;10.67;;;7.10;;
64401;SDS011;50724;42.376;23.768;2023-06-14T08:24:36;12.25;;;7.68;;
64401;SDS011;50724;42.376;23.768;2023-06-14T08:27:36;11.90;;;6.53;;
64401;SDS011;50724;42.376;23.768;2023-06-14T08:30:37;10.85;;;6.68;;
64401;SDS011;50724;42.376;23.768;2023-06-14T08:33:38;11.27;;;6.38;;
64401;SDS011;50724;42.376;23.768;2023-06-14T08:36:42;8.45;;;5.88;;
64401;SDS011;50724;42.376;23.768;2023-06-14T08:39:43;9.27;;;6.38;;
64401;SDS011;50724;42.376;23.768;2023-06-14T08:42:44;9.10;;;5.93;;
64401;SDS011;50724;42.376;23.768;2023-06-14T08:45:48;9.10;;;6.00;;
64401;SDS011;50724;42.376;23.768;2023-06-14T08:48:52;11.40;;;6.07;;
64401;SDS011;50724;42.376;23.768;2023-06-14T08:51:59;9.63;;;6.05;;
64401;SDS011;50724;42.376;23.768;2023-06-14T08:55:00;8.45;;;5.88;;
64401;SDS011;50724;42.376;23.768;2023-06-14T08:58:02;9.70;;;5.78;;
64401;SDS011;50724;42.376;23.768;2023-06-14T09:01:03;9.60;;;5.82;;
64401;SDS011;50724;42.376;23.768;2023-06-14T09:04:14;10.00;;;5.88;;
64401;SDS011;50724;42.376;23.768;2023-06-14T09:07:14;9.17;;;5.80;;
64401;SDS011;50724;42.376;23.768;2023-06-14T09:10:15;8.05;;;5.60;;
64401;SDS011;50724;42.376;23.768;2023-06-14T09:17:13;9.52;;;5.05;;
64401;SDS011;50724;42.376;23.768;2023-06-14T09:20:15;9.18;;;5.13;;
64401;SDS011;50724;42.376;23.768;2023-06-14T09:23:21;8.88;;;6.10;;
64401;SDS011;50724;42.376;23.768;2023-06-14T09:26:22;8.27;;;5.80;;
64401;SDS011;50724;42.376;23.768;2023-06-14T09:29:23;8.02;;;5.63;;
64401;SDS011;50724;42.376;23.768;2023-06-14T09:32:24;8.70;;;5.43;;
64401;SDS011;50724;42.376;23.768;2023-06-14T09:35:25;8.52;;;5.85;;
64401;SDS011;50724;42.376;23.768;2023-06-14T09:38:26;9.30;;;6.22;;
64401;SDS011;50724;42.376;23.768;2023-06-14T09:41:36;10.55;;;6.70;;
64401;SDS011;50724;42.376;23.768;2023-06-14T09:44:40;11.35;;;6.63;;
64401;SDS011;50724;42.376;23.768;2023-06-14T09:47:41;10.90;;;6.47;;
64401;SDS011;50724;42.376;23.768;2023-06-14T09:50:46;11.05;;;6.95;;
64401;SDS011;50724;42.376;23.768;2023-06-14T09:53:50;11.95;;;7.38;;
64401;SDS011;50724;42.376;23.768;2023-06-14T09:56:51;11.43;;;7.20;;
64401;SDS011;50724;42.376;23.768;2023-06-14T09:59:52;10.20;;;6.10;;
64401;SDS011;50724;42.376;23.768;2023-06-14T10:02:57;11.13;;;7.05;;
64401;SDS011;50724;42.376;23.768;2023-06-14T10:06:03;10.45;;;6.78;;
64401;SDS011;50724;42.376;23.768;2023-06-14T10:09:08;9.93;;;7.15;;
64401;SDS011;50724;42.376;23.768;2023-06-14T10:12:10;10.98;;;7.28;;
64401;SDS011;50724;42.376;23.768;2023-06-14T10:15:13;11.07;;;6.65;;
64401;SDS011;50724;42.376;23.768;2023-06-14T10:18:32;10.20;;;7.00;;
64401;SDS011;50724;42.376;23.768;2023-06-14T10:21:45;9.68;;;7.03;;
64401;SDS011;50724;42.376;23.768;2023-06-14T10:24:53;12.07;;;7.78;;
64401;SDS011;50724;42.376;23.768;2023-06-14T10:28:01;10.20;;;6.80;;
64401;SDS011;50724;42.376;23.768;2023-06-14T10:31:07;12.85;;;7.15;;
64401;SDS011;50724;42.376;23.768;2023-06-14T10:34:09;12.77;;;8.18;;
64401;SDS011;50724;42.376;23.768;2023-06-14T10:37:13;12.27;;;8.85;;
64401;SDS011;50724;42.376;23.768;2023-06-14T10:40:30;14.60;;;7.93;;
64401;SDS011;50724;42.376;23.768;2023-06-14T10:43:31;11.52;;;8.13;;
64401;SDS011;50724;42.376;23.768;2023-06-14T10:46:31;15.43;;;8.55;;
64401;SDS011;50724;42.376;23.768;2023-06-14T10:49:44;13.13;;;8.10;;
64401;SDS011;50724;42.376;23.768;2023-06-14T10:52:48;16.25;;;8.65;;
64401;SDS011;50724;42.376;23.768;2023-06-14T10:55:49;12.53;;;8.00;;
64401;SDS011;50724;42.376;23.768;2023-06-14T10:58:49;11.30;;;7.77;;
64401;SDS011;50724;42.376;23.768;2023-06-14T11:05:09;11.77;;;7.75;;
64401;SDS011;50724;42.376;23.768;2023-06-14T11:08:18;16.27;;;7.97;;
64401;SDS011;50724;42.376;23.768;2023-06-14T11:11:24;13.25;;;8.20;;
64401;SDS011;50724;42.376;23.768;2023-06-14T11:14:33;12.38;;;7.88;;
64401;SDS011;50724;42.376;23.768;2023-06-14T11:17:34;12.77;;;7.53;;
64401;SDS011;50724;42.376;23.768;2023-06-14T11:20:35;12.82;;;8.15;;
64401;SDS011;50724;42.376;23.768;2023-06-14T11:23:36;12.50;;;8.88;;
64401;SDS011;50724;42.376;23.768;2023-06-14T11:26:37;11.75;;;7.68;;
64401;SDS011;50724;42.376;23.768;2023-06-14T11:29:38;11.70;;;6.47;;
64401;SDS011;50724;42.376;23.768;2023-06-14T11:32:39;12.73;;;8.00;;
64401;SDS011;50724;42.376;23.768;2023-06-14T11:35:39;14.15;;;8.13;;
64401;SDS011;50724;42.376;23.768;2023-06-14T11:38:40;15.05;;;7.45;;
64401;SDS011;50724;42.376;23.768;2023-06-14T11:41:41;16.57;;;9.00;;
64401;SDS011;50724;42.376;23.768;2023-06-14T11:44:46;9.70;;;6.95;;
64401;SDS011;50724;42.376;23.768;2023-06-14T11:47:47;14.85;;;7.53;;
64401;SDS011;50724;42.376;23.768;2023-06-14T11:50:49;12.20;;;8.13;;
64401;SDS011;50724;42.376;23.768;2023-06-14T11:53:50;10.38;;;7.22;;
64401;SDS011;50724;42.376;23.768;2023-06-14T11:56:50;11.93;;;7.95;;
64401;SDS011;50724;42.376;23.768;2023-06-14T11:59:51;11.77;;;7.18;;
64401;SDS011;50724;42.376;23.768;2023-06-14T12:02:55;11.07;;;7.57;;
64401;SDS011;50724;42.376;23.768;2023-06-14T12:09:07;10.48;;;7.07;;
64401;SDS011;50724;42.376;23.768;2023-06-14T12:12:12;9.65;;;6.95;;
64401;SDS011;50724;42.376;23.768;2023-06-14T12:15:13;12.63;;;7.00;;
64401;SDS011;50724;42.376;23.768;2023-06-14T12:18:13;13.55;;;6.90;;
64401;SDS011;50724;42.376;23.768;2023-06-14T12:21:14;9.67;;;6.33;;
64401;SDS011;50724;42.376;23.768;2023-06-14T12:24:15;9.77;;;7.15;;
64401;SDS011;50724;42.376;23.768;2023-06-14T12:27:15;12.32;;;6.18;;
64401;SDS011;50724;42.376;23.768;2023-06-14T12:30:18;10.35;;;7.18;;
64401;SDS011;50724;42.376;23.768;2023-06-14T12:33:19;10.13;;;6.35;;
64401;SDS011;50724;42.376;23.768;2023-06-14T12:36:19;10.57;;;6.47;;
64401;SDS011;50724;42.376;23.768;2023-06-14T12:39:20;9.90;;;7.20;;
64401;SDS011;50724;42.376;23.768;2023-06-14T12:42:21;10.85;;;7.03;;
64401;SDS011;50724;42.376;23.768;2023-06-14T12:45:21;12.20;;;7.37;;
64401;SDS011;50724;42.376;23.768;2023-06-14T12:48:23;11.80;;;8.02;;
64401;SDS011;50724;42.376;23.768;2023-06-14T12:51:23;9.68;;;7.65;;
64401;SDS011;50724;42.376;23.768;2023-06-14T13:00:26;10.10;;;7.17;;
64401;SDS011;50724;42.376;23.768;2023-06-14T13:03:26;10.87;;;7.57;;
64401;SDS011;50724;42.376;23.768;2023-06-14T13:06:26;10.43;;;7.47;;
64401;SDS011;50724;42.376;23.768;2023-06-14T13:09:29;10.55;;;7.70;;
64401;SDS011;50724;42.376;23.768;2023-06-14T13:12:29;9.70;;;7.53;;
64401;SDS011;50724;42.376;23.768;2023-06-14T13:15:30;10.03;;;7.83;;
64401;SDS011;50724;42.376;23.768;2023-06-14T13:18:30;11.43;;;8.73;;
64401;SDS011;50724;42.376;23.768;2023-06-14T13:21:31;11.53;;;7.53;;
64401;SDS011;50724;42.376;23.768;2023-06-14T13:24:31;12.07;;;7.75;;
64401;SDS011;50724;42.376;23.768;2023-06-14T13:27:32;10.40;;;8.68;;
64401;SDS011;50724;42.376;23.768;2023-06-14T13:30:32;10.00;;;7.53;;
64401;SDS011;50724;42.376;23.768;2023-06-14T13:33:33;11.38;;;7.75;;
64401;SDS011;50724;42.376;23.768;2023-06-14T13:36:33;9.60;;;7.83;;
64401;SDS011;50724;42.376;23.768;2023-06-14T13:39:34;11.65;;;8.18;;
64401;SDS011;50724;42.376;23.768;2023-06-14T13:42:37;9.27;;;7.22;;
64401;SDS011;50724;42.376;23.768;2023-06-14T13:45:37;10.35;;;8.20;;
64401;SDS011;50724;42.376;23.768;2023-06-14T13:48:38;10.05;;;7.70;;
64401;SDS011;50724;42.376;23.768;2023-06-14T13:51:47;11.27;;;7.97;;
64401;SDS011;50724;42.376;23.768;2023-06-14T13:54:48;10.05;;;8.18;;
64401;SDS011;50724;42.376;23.768;2023-06-14T13:57:48;10.50;;;8.18;;
64401;SDS011;50724;42.376;23.768;2023-06-14T14:00:49;10.73;;;8.47;;
64401;SDS011;50724;42.376;23.768;2023-06-14T14:03:49;10.70;;;8.35;;
64401;SDS011;50724;42.376;23.768;2023-06-14T14:06:50;10.50;;;8.05;;
64401;SDS011;50724;42.376;23.768;2023-06-14T14:09:50;11.63;;;8.23;;
64401;SDS011;50724;42.376;23.768;2023-06-14T14:12:59;10.02;;;7.72;;
64401;SDS011;50724;42.376;23.768;2023-06-14T14:15:59;9.98;;;8.00;;
64401;SDS011;50724;42.376;23.768;2023-06-14T14:19:00;9.07;;;7.97;;
64401;SDS011;50724;42.376;23.768;2023-06-14T14:22:09;9.05;;;7.72;;
64401;SDS011;50724;42.376;23.768;2023-06-14T14:25:19;10.38;;;7.88;;
64401;SDS011;50724;42.376;23.768;2023-06-14T14:28:20;11.47;;;7.73;;
64401;SDS011;50724;42.376;23.768;2023-06-14T14:31:20;11.38;;;7.43;;
64401;SDS011;50724;42.376;23.768;2023-06-14T14:34:21;13.10;;;7.35;;
64401;SDS011;50724;42.376;23.768;2023-06-14T14:37:21;9.47;;;7.00;;
64401;SDS011;50724;42.376;23.768;2023-06-14T14:40:21;12.07;;;7.40;;
64401;SDS011;50724;42.376;23.768;2023-06-14T14:43:22;10.32;;;7.55;;
64401;SDS011;50724;42.376;23.768;2023-06-14T14:46:22;12.90;;;8.50;;
64401;SDS011;50724;42.376;23.768;2023-06-14T14:49:23;11.77;;;8.32;;
64401;SDS011;50724;42.376;23.768;2023-06-14T14:52:23;10.82;;;8.07;;
64401;SDS011;50724;42.376;23.768;2023-06-14T14:55:25;14.23;;;9.23;;
64401;SDS011;50724;42.376;23.768;2023-06-14T14:58:25;14.38;;;8.50;;
64401;SDS011;50724;42.376;23.768;2023-06-14T15:01:25;11.73;;;8.57;;
64401;SDS011;50724;42.376;23.768;2023-06-14T15:04:34;14.70;;;8.43;;
64401;SDS011;50724;42.376;23.768;2023-06-14T15:07:43;12.38;;;8.98;;
64401;SDS011;50724;42.376;23.768;2023-06-14T15:10:45;13.48;;;9.55;;
64401;SDS011;50724;42.376;23.768;2023-06-14T15:13:47;13.70;;;8.55;;
64401;SDS011;50724;42.376;23.768;2023-06-14T15:16:48;11.90;;;7.93;;
64401;SDS011;50724;42.376;23.768;2023-06-14T15:19:49;10.93;;;8.10;;
64401;SDS011;50724;42.376;23.768;2023-06-14T15:22:50;13.38;;;7.70;;
64401;SDS011;50724;42.376;23.768;2023-06-14T15:25:51;12.52;;;7.47;;
64401;SDS011;50724;42.376;23.768;2023-06-14T15:28:51;10.15;;;7.55;;
64401;SDS011;50724;42.376;23.768;2023-06-14T15:31:52;12.27;;;8.70;;
64401;SDS011;50724;42.376;23.768;2023-06-14T15:34:54;13.38;;;7.68;;
64401;SDS011;50724;42.376;23.768;2023-06-14T15:37:55;15.07;;;8.57;;
64401;SDS011;50724;42.376;23.768;2023-06-14T15:40:55;12.10;;;7.40;;
64401;SDS011;50724;42.376;23.768;2023-06-14T15:43:56;11.20;;;7.88;;
64401;SDS011;50724;42.376;23.768;2023-06-14T15:46:56;11.40;;;7.97;;
64401;SDS011;50724;42.376;23.768;2023-06-14T15:49:57;13.60;;;7.75;;
64401;SDS011;50724;42.376;23.768;2023-06-14T15:52:57;10.48;;;7.75;;
64401;SDS011;50724;42.376;23.768;2023-06-14T15:55:57;9.95;;;7.28;;
64401;SDS011;50724;42.376;23.768;2023-06-14T15:58:58;12.32;;;7.28;;
64401;SDS011;50724;42.376;23.768;2023-06-14T16:01:59;11.02;;;7.07;;
64401;SDS011;50724;42.376;23.768;2023-06-14T16:04:59;10.87;;;7.40;;
64401;SDS011;50724;42.376;23.768;2023-06-14T16:08:00;11.80;;;7.55;;
64401;SDS011;50724;42.376;23.768;2023-06-14T16:11:00;11.07;;;7.95;;
64401;SDS011;50724;42.376;23.768;2023-06-14T16:14:01;11.73;;;7.60;;
64401;SDS011;50724;42.376;23.768;2023-06-14T16:17:01;13.18;;;8.07;;
64401;SDS011;50724;42.376;23.768;2023-06-14T16:20:02;12.02;;;7.47;;
64401;SDS011;50724;42.376;23.768;2023-06-14T16:23:03;12.35;;;7.38;;
64401;SDS011;50724;42.376;23.768;2023-06-14T16:26:03;12.13;;;7.90;;
64401;SDS011;50724;42.376;23.768;2023-06-14T16:29:03;13.50;;;8.55;;
64401;SDS011;50724;42.376;23.768;2023-06-14T16:32:04;12.45;;;7.75;;
64401;SDS011;50724;42.376;23.768;2023-06-14T16:35:05;13.05;;;9.07;;
64401;SDS011;50724;42.376;23.768;2023-06-14T16:38:06;12.68;;;9.05;;
64401;SDS011;50724;42.376;23.768;2023-06-14T16:41:07;14.57;;;10.43;;
64401;SDS011;50724;42.376;23.768;2023-06-14T16:44:07;14.10;;;10.57;;
64401;SDS011;50724;42.376;23.768;2023-06-14T16:47:08;13.77;;;10.38;;
64401;SDS011;50724;42.376;23.768;2023-06-14T16:53:10;15.50;;;10.23;;
64401;SDS011;50724;42.376;23.768;2023-06-14T16:56:11;13.67;;;10.33;;
64401;SDS011;50724;42.376;23.768;2023-06-14T16:59:20;17.80;;;11.07;;
64401;SDS011;50724;42.376;23.768;2023-06-14T17:02:20;16.10;;;10.50;;
64401;SDS011;50724;42.376;23.768;2023-06-14T17:05:21;15.32;;;11.55;;
64401;SDS011;50724;42.376;23.768;2023-06-14T17:08:22;17.83;;;11.82;;
64401;SDS011;50724;42.376;23.768;2023-06-14T17:11:23;15.38;;;10.63;;
64401;SDS011;50724;42.376;23.768;2023-06-14T17:14:23;15.77;;;10.93;;
64401;SDS011;50724;42.376;23.768;2023-06-14T17:17:24;17.35;;;10.98;;
64401;SDS011;50724;42.376;23.768;2023-06-14T17:20:25;15.57;;;10.63;;
64401;SDS011;50724;42.376;23.768;2023-06-14T17:23:27;16.25;;;11.15;;
64401;SDS011;50724;42.376;23.768;2023-06-14T17:26:29;15.85;;;10.48;;
64401;SDS011;50724;42.376;23.768;2023-06-14T17:29:29;18.55;;;11.68;;
64401;SDS011;50724;42.376;23.768;2023-06-14T17:32:30;15.65;;;11.00;;
64401;SDS011;50724;42.376;23.768;2023-06-14T17:35:31;16.97;;;10.40;;
64401;SDS011;50724;42.376;23.768;2023-06-14T17:38:32;16.85;;;11.30;;
64401;SDS011;50724;42.376;23.768;2023-06-14T17:41:33;17.15;;;10.88;;
64401;SDS011;50724;42.376;23.768;2023-06-14T17:44:33;17.17;;;9.93;;
64401;SDS011;50724;42.376;23.768;2023-06-14T17:47:33;13.65;;;9.50;;
64401;SDS011;50724;42.376;23.768;2023-06-14T17:50:34;15.07;;;10.57;;
64401;SDS011;50724;42.376;23.768;2023-06-14T17:53:38;14.05;;;9.68;;
64401;SDS011;50724;42.376;23.768;2023-06-14T17:56:39;14.93;;;9.82;;
64401;SDS011;50724;42.376;23.768;2023-06-14T17:59:40;14.05;;;10.07;;
64401;SDS011;50724;42.376;23.768;2023-06-14T18:02:41;15.55;;;10.50;;
64401;SDS011;50724;42.376;23.768;2023-06-14T18:05:41;14.57;;;9.47;;
64401;SDS011;50724;42.376;23.768;2023-06-14T18:08:42;16.17;;;11.18;;
64401;SDS011;50724;42.376;23.768;2023-06-14T18:11:47;14.98;;;10.80;;
64401;SDS011;50724;42.376;23.768;2023-06-14T18:14:47;14.95;;;9.63;;
64401;SDS011;50724;42.376;23.768;2023-06-14T18:17:48;15.13;;;10.15;;
64401;SDS011;50724;42.376;23.768;2023-06-14T18:20:52;13.45;;;9.57;;
64401;SDS011;50724;42.376;23.768;2023-06-14T18:23:52;14.17;;;10.33;;